createdAt,value
2022-11-05T00:00:09.067Z,2034.00
2022-11-05T00:00:41.563Z,2034.00
2022-11-05T00:01:14.054Z,2032.00
2022-11-05T00:01:46.591Z,2032.00
2022-11-05T00:02:16.575Z,2032.00
2022-11-05T00:02:49.067Z,2038.00
2022-11-05T00:03:21.599Z,2044.00
2022-11-05T00:03:51.653Z,2056.00
2022-11-05T00:04:25.523Z,2057.00
2022-11-05T00:04:53.982Z,2060.00
2022-11-05T00:05:26.474Z,2063.00
2022-11-05T00:05:58.972Z,2064.00
2022-11-05T00:06:31.460Z,2068.00
2022-11-05T00:07:03.956Z,2069.00
2022-11-05T00:07:36.450Z,2070.00
2022-11-05T00:08:08.943Z,2066.00
2022-11-05T00:08:41.442Z,2069.00
2022-11-05T00:09:13.954Z,2068.00
2022-11-05T00:09:46.447Z,2067.00
2022-11-05T00:10:18.949Z,2067.00
2022-11-05T00:10:51.438Z,2064.00
2022-11-05T00:11:23.938Z,2058.00
2022-11-05T00:11:56.432Z,2059.00
2022-11-05T00:12:28.928Z,2063.00
2022-11-05T00:13:01.427Z,2065.00
2022-11-05T00:13:33.919Z,2068.00
2022-11-05T00:14:06.409Z,2072.00
2022-11-05T00:14:38.898Z,2077.00
2022-11-05T00:15:11.414Z,2080.00
2022-11-05T00:15:49.913Z,2088.00
2022-11-05T00:16:15.911Z,2087.00
2022-11-05T00:16:48.402Z,2089.00
2022-11-05T00:17:20.893Z,2087.00
2022-11-05T00:17:53.384Z,2090.00
2022-11-05T00:18:25.899Z,2090.00
2022-11-05T00:18:58.392Z,2092.00
2022-11-05T00:19:30.880Z,2095.00
2022-11-05T00:20:03.379Z,2099.00
2022-11-05T00:20:35.912Z,2099.00
2022-11-05T00:21:08.450Z,2102.00
2022-11-05T00:21:38.444Z,2106.00
2022-11-05T00:22:10.969Z,2111.00
2022-11-05T00:22:43.462Z,2117.00
2022-11-05T00:23:15.957Z,2122.00
2022-11-05T00:23:48.452Z,2128.00
2022-11-05T00:24:24.223Z,2126.00
2022-11-05T00:24:51.846Z,2123.00
2022-11-05T00:25:24.334Z,2126.00
2022-11-05T00:25:56.825Z,2128.00
2022-11-05T00:26:29.317Z,2127.00
2022-11-05T00:27:01.824Z,2123.00
2022-11-05T00:27:34.586Z,2122.00
2022-11-05T00:28:04.566Z,2123.00
2022-11-05T00:28:37.052Z,2121.00
2022-11-05T00:29:09.550Z,2128.00
2022-11-05T00:29:42.040Z,2144.00
2022-11-05T00:30:14.535Z,2143.00
2022-11-05T00:30:47.024Z,2137.00
2022-11-05T00:31:19.518Z,2138.00
2022-11-05T00:31:52.011Z,2140.00
2022-11-05T00:32:24.519Z,2151.00
2022-11-05T00:32:57.007Z,2155.00
2022-11-05T00:33:29.499Z,2152.00
2022-11-05T00:34:01.987Z,2151.00
2022-11-05T00:34:34.480Z,2150.00
2022-11-05T00:35:06.968Z,2154.00
2022-11-05T00:35:39.453Z,2158.00
2022-11-05T00:36:11.951Z,2167.00
2022-11-05T00:36:44.453Z,2167.00
2022-11-05T00:37:16.939Z,2167.00
2022-11-05T00:37:50.567Z,2168.00
2022-11-05T00:38:20.753Z,2168.00
2022-11-05T00:38:53.258Z,2168.00
2022-11-05T00:39:25.754Z,2168.00
2022-11-05T00:39:58.250Z,2173.00
2022-11-05T00:40:30.751Z,2175.00
2022-11-05T00:41:03.254Z,2180.00
2022-11-05T00:41:35.772Z,2192.00
2022-11-05T00:42:08.267Z,2193.00
2022-11-05T00:42:40.751Z,2200.00
2022-11-05T00:43:13.629Z,2216.00
2022-11-05T00:43:43.692Z,2231.00
2022-11-05T00:44:16.178Z,2246.00
2022-11-05T00:44:48.673Z,2253.00
2022-11-05T00:45:21.167Z,2264.00
2022-11-05T00:45:53.661Z,2269.00
2022-11-05T00:46:26.185Z,2288.00
2022-11-05T00:46:59.970Z,2286.00
2022-11-05T00:47:29.991Z,2283.00
2022-11-05T00:48:02.478Z,2283.00
2022-11-05T00:48:34.970Z,2276.00
2022-11-05T00:49:07.477Z,2188.00
2022-11-05T00:49:39.974Z,2176.00
2022-11-05T00:50:12.466Z,2185.00
2022-11-05T00:50:44.971Z,2180.00
2022-11-05T00:51:17.470Z,2193.00
2022-11-05T00:51:49.959Z,2208.00
2022-11-05T00:52:22.448Z,2221.00
2022-11-05T00:52:54.937Z,2237.00
2022-11-05T00:53:27.428Z,2233.00
2022-11-05T00:53:59.920Z,2229.00
2022-11-05T00:54:32.408Z,2228.00
2022-11-05T00:55:04.900Z,2226.00
2022-11-05T00:55:37.411Z,2231.00
2022-11-05T00:56:09.900Z,2238.00
2022-11-05T00:56:42.390Z,2245.00
2022-11-05T00:57:14.879Z,2253.00
2022-11-05T00:57:47.370Z,2260.00
2022-11-05T00:58:19.857Z,2267.00
2022-11-05T00:58:52.348Z,2274.00
2022-11-05T00:59:24.878Z,2280.00
2022-11-05T00:59:57.375Z,2285.00
2022-11-05T01:00:29.867Z,2292.00
2022-11-05T01:01:02.419Z,2297.00
2022-11-05T01:01:32.524Z,2299.00
2022-11-05T01:02:02.661Z,2304.00
2022-11-05T01:02:32.934Z,2305.00
2022-11-05T01:03:03.048Z,2310.00
2022-11-05T01:03:35.540Z,2310.00
2022-11-05T01:04:09.031Z,2312.00
2022-11-05T01:04:38.978Z,2308.00
2022-11-05T01:05:11.467Z,2305.00
2022-11-05T01:05:43.975Z,2305.00
2022-11-05T01:06:16.463Z,2305.00
2022-11-05T01:06:48.955Z,2305.00
2022-11-05T01:07:21.443Z,2302.00
2022-11-05T01:07:53.932Z,2298.00
2022-11-05T01:08:26.422Z,2291.00
2022-11-05T01:08:58.907Z,2286.00
2022-11-05T01:09:31.400Z,2277.00
2022-11-05T01:10:03.930Z,2266.00
2022-11-05T01:10:36.424Z,2262.00
2022-11-05T01:11:08.908Z,2250.00
2022-11-05T01:11:41.431Z,2249.00
2022-11-05T01:12:13.917Z,2252.00
2022-11-05T01:12:46.417Z,2254.00
2022-11-05T01:13:19.541Z,2254.00
2022-11-05T01:13:49.820Z,2251.00
2022-11-05T01:14:22.316Z,2253.00
2022-11-05T01:14:54.805Z,2253.00
2022-11-05T01:15:27.312Z,2254.00
2022-11-05T01:15:59.807Z,2259.00
2022-11-05T01:16:32.300Z,2265.00
2022-11-05T01:17:04.789Z,2270.00
2022-11-05T01:17:37.296Z,2276.00
2022-11-05T01:18:09.791Z,2277.00
2022-11-05T01:18:42.281Z,2280.00
2022-11-05T01:19:14.781Z,2283.00
2022-11-05T01:19:47.263Z,2282.00
2022-11-05T01:20:19.782Z,2282.00
2022-11-05T01:20:52.284Z,2286.00
2022-11-05T01:21:24.780Z,2292.00
2022-11-05T01:21:57.270Z,2315.00
2022-11-05T01:22:29.757Z,2330.00
2022-11-05T01:23:02.257Z,2330.00
2022-11-05T01:23:34.741Z,2328.00
2022-11-05T01:24:07.236Z,2327.00
2022-11-05T01:24:39.728Z,2328.00
2022-11-05T01:25:12.227Z,2331.00
2022-11-05T01:25:44.714Z,2332.00
2022-11-05T01:26:17.195Z,2332.00
2022-11-05T01:26:49.715Z,2334.00
2022-11-05T01:27:22.208Z,2337.00
2022-11-05T01:27:54.690Z,2340.00
2022-11-05T01:28:27.269Z,2343.00
2022-11-05T01:28:57.269Z,2346.00
2022-11-05T01:29:27.249Z,2348.00
2022-11-05T01:29:59.735Z,2351.00
2022-11-05T01:30:32.220Z,2355.00
2022-11-05T01:31:04.712Z,2360.00
2022-11-05T01:31:37.206Z,2367.00
2022-11-05T01:32:09.709Z,2376.00
2022-11-05T01:32:42.211Z,2380.00
2022-11-05T01:33:14.990Z,2386.00
2022-11-05T01:33:45.080Z,2390.00
2022-11-05T01:34:17.568Z,2389.00
2022-11-05T01:34:50.056Z,2391.00
2022-11-05T01:35:22.543Z,2392.00
2022-11-05T01:35:55.041Z,2397.00
2022-11-05T01:36:27.519Z,2397.00
2022-11-05T01:37:00.021Z,2397.00
2022-11-05T01:37:32.539Z,2398.00
2022-11-05T01:38:05.023Z,2402.00
2022-11-05T01:38:37.513Z,2413.00
2022-11-05T01:39:10.019Z,2420.00
2022-11-05T01:39:42.534Z,2426.00
2022-11-05T01:40:15.026Z,2429.00
2022-11-05T01:40:45.485Z,2426.00
2022-11-05T01:41:17.997Z,2425.00
2022-11-05T01:41:50.486Z,2427.00
2022-11-05T01:42:22.983Z,2432.00
2022-11-05T01:42:55.474Z,2433.00
2022-11-05T01:43:27.969Z,2435.00
2022-11-05T01:44:00.461Z,2440.00
2022-11-05T01:44:32.950Z,2445.00
2022-11-05T01:45:05.454Z,2445.00
2022-11-05T01:45:37.945Z,2447.00
2022-11-05T01:46:10.436Z,2444.00
2022-11-05T01:46:42.927Z,2443.00
2022-11-05T01:47:15.423Z,2438.00
2022-11-05T01:47:47.916Z,2434.00
2022-11-05T01:48:20.415Z,2431.00
2022-11-05T01:48:54.429Z,2424.00
2022-11-05T01:49:24.766Z,2421.00
2022-11-05T01:49:57.258Z,2425.00
2022-11-05T01:50:29.754Z,2431.00
2022-11-05T01:51:02.247Z,2434.00
2022-11-05T01:51:34.739Z,2431.00
2022-11-05T01:52:07.233Z,2430.00
2022-11-05T01:52:39.729Z,2430.00
2022-11-05T01:53:12.908Z,2430.00
2022-11-05T01:53:43.141Z,2435.00
2022-11-05T01:54:15.636Z,2443.00
2022-11-05T01:54:48.135Z,2446.00
2022-11-05T01:55:20.632Z,2452.00
2022-11-05T01:55:53.127Z,2456.00
2022-11-05T01:56:25.621Z,2463.00
2022-11-05T01:56:58.113Z,2469.00
2022-11-05T01:57:30.628Z,2472.00
2022-11-05T01:58:03.112Z,2473.00
2022-11-05T01:58:35.603Z,2470.00
2022-11-05T01:59:08.101Z,2463.00
2022-11-05T01:59:40.594Z,2455.00
2022-11-05T02:00:13.085Z,2447.00
2022-11-05T02:00:45.601Z,2442.00
2022-11-05T02:01:18.312Z,2444.00
2022-11-05T02:01:48.608Z,2444.00
2022-11-05T02:02:18.776Z,2443.00
2022-11-05T02:02:48.988Z,2444.00
2022-11-05T02:03:19.081Z,2443.00
2022-11-05T02:03:51.569Z,2441.00
2022-11-05T02:04:24.060Z,2436.00
2022-11-05T02:04:56.571Z,2432.00
2022-11-05T02:05:29.063Z,2430.00
2022-11-05T02:06:01.559Z,2427.00
2022-11-05T02:06:34.053Z,2425.00
2022-11-05T02:07:06.556Z,2426.00
2022-11-05T02:07:39.043Z,2428.00
2022-11-05T02:08:11.541Z,2426.00
2022-11-05T02:08:44.034Z,2427.00
2022-11-05T02:09:16.531Z,2431.00
2022-11-05T02:09:49.030Z,2433.00
2022-11-05T02:10:21.523Z,2439.00
2022-11-05T02:10:54.017Z,2449.00
2022-11-05T02:11:26.513Z,2458.00
2022-11-05T02:11:59.007Z,2463.00
2022-11-05T02:12:31.497Z,2468.00
2022-11-05T02:13:04.000Z,2467.00
2022-11-05T02:13:36.480Z,2472.00
2022-11-05T02:14:08.991Z,2476.00
2022-11-05T02:14:41.479Z,2476.00
2022-11-05T02:15:13.973Z,2474.00
2022-11-05T02:15:46.460Z,2477.00
2022-11-05T02:16:18.955Z,2477.00
2022-11-05T02:16:51.449Z,2480.00
2022-11-05T02:17:23.957Z,2483.00
2022-11-05T02:17:56.458Z,2484.00
2022-11-05T02:18:28.984Z,2487.00
2022-11-05T02:19:01.473Z,2487.00
2022-11-05T02:19:33.967Z,2487.00
2022-11-05T02:20:06.469Z,2486.00
2022-11-05T02:20:38.957Z,2487.00
2022-11-05T02:21:11.446Z,2487.00
2022-11-05T02:21:43.957Z,2487.00
2022-11-05T02:22:16.454Z,2488.00
2022-11-05T02:22:48.968Z,2483.00
2022-11-05T02:23:21.444Z,2476.00
2022-11-05T02:23:53.931Z,2468.00
2022-11-05T02:24:26.419Z,2463.00
2022-11-05T02:24:58.908Z,2465.00
2022-11-05T02:25:31.399Z,2466.00
2022-11-05T02:26:03.904Z,2472.00
2022-11-05T02:26:36.397Z,2480.00
2022-11-05T02:27:08.932Z,2479.00
2022-11-05T02:27:41.441Z,2472.00
2022-11-05T02:28:13.937Z,2464.00
2022-11-05T02:28:46.419Z,2458.00
2022-11-05T02:29:18.916Z,2450.00
2022-11-05T02:29:51.406Z,2445.00
2022-11-05T02:30:23.894Z,2442.00
2022-11-05T02:30:56.383Z,2441.00
2022-11-05T02:31:28.872Z,2442.00
2022-11-05T02:32:01.359Z,2439.00
2022-11-05T02:32:33.867Z,2432.00
2022-11-05T02:33:06.355Z,2429.00
2022-11-05T02:33:38.853Z,2426.00
2022-11-05T02:34:11.337Z,2419.00
2022-11-05T02:34:43.829Z,2411.00
2022-11-05T02:35:16.320Z,2327.00
2022-11-05T02:35:48.812Z,2326.00
2022-11-05T02:36:21.299Z,2327.00
2022-11-05T02:36:53.808Z,2331.00
2022-11-05T02:37:26.303Z,2338.00
2022-11-05T02:37:58.822Z,2336.00
2022-11-05T02:38:31.344Z,2334.00
2022-11-05T02:39:03.838Z,2330.00
2022-11-05T02:39:36.330Z,2333.00
2022-11-05T02:40:08.821Z,2333.00
2022-11-05T02:40:41.329Z,2330.00
2022-11-05T02:41:13.847Z,2328.00
2022-11-05T02:41:46.323Z,2326.00
2022-11-05T02:42:18.822Z,2328.00
2022-11-05T02:42:51.312Z,2329.00
2022-11-05T02:43:23.816Z,2331.00
2022-11-05T02:43:56.336Z,2334.00
2022-11-05T02:44:28.840Z,2339.00
2022-11-05T02:45:01.330Z,2346.00
2022-11-05T02:45:33.821Z,2344.00
2022-11-05T02:46:06.310Z,2345.00
2022-11-05T02:46:38.809Z,2343.00
2022-11-05T02:47:16.989Z,2341.00
2022-11-05T02:47:43.653Z,2336.00
2022-11-05T02:48:16.173Z,2337.00
2022-11-05T02:48:48.665Z,2337.00
2022-11-05T02:49:21.170Z,2332.00
2022-11-05T02:49:53.681Z,2331.00
2022-11-05T02:50:26.168Z,2329.00
2022-11-05T02:50:58.656Z,2324.00
2022-11-05T02:51:31.163Z,2321.00
2022-11-05T02:52:03.665Z,2315.00
2022-11-05T02:52:36.157Z,2309.00
2022-11-05T02:53:09.006Z,2306.00
2022-11-05T02:53:39.029Z,2309.00
2022-11-05T02:54:11.522Z,2311.00
2022-11-05T02:54:44.039Z,2310.00
2022-11-05T02:55:16.530Z,2312.00
2022-11-05T02:55:49.017Z,2313.00
2022-11-05T02:56:21.525Z,2314.00
2022-11-05T02:56:54.010Z,2317.00
2022-11-05T02:57:26.503Z,2316.00
2022-11-05T02:57:58.999Z,2317.00
2022-11-05T02:58:31.491Z,2323.00
2022-11-05T02:59:03.980Z,2330.00
2022-11-05T02:59:36.486Z,2331.00
2022-11-05T03:00:09.000Z,2330.00
2022-11-05T03:00:41.501Z,2330.00
2022-11-05T03:01:13.987Z,2330.00
2022-11-05T03:01:46.614Z,2330.00
2022-11-05T03:02:16.845Z,2330.00
2022-11-05T03:02:46.977Z,2326.00
2022-11-05T03:03:17.079Z,2325.00
2022-11-05T03:03:49.574Z,2324.00
2022-11-05T03:04:22.065Z,2321.00
2022-11-05T03:04:54.556Z,2319.00
2022-11-05T03:05:24.694Z,2316.00
2022-11-05T03:05:57.210Z,2318.00
2022-11-05T03:06:29.704Z,2320.00
2022-11-05T03:07:02.201Z,2317.00
2022-11-05T03:07:34.692Z,2320.00
2022-11-05T03:08:07.183Z,2322.00
2022-11-05T03:08:39.688Z,2322.00
2022-11-05T03:09:12.180Z,2321.00
2022-11-05T03:09:44.676Z,2318.00
2022-11-05T03:10:17.169Z,2322.00
2022-11-05T03:10:49.654Z,2325.00
2022-11-05T03:11:22.172Z,2332.00
2022-11-05T03:11:54.661Z,2336.00
2022-11-05T03:12:27.153Z,2380.00
2022-11-05T03:12:59.647Z,2386.00
2022-11-05T03:13:32.135Z,2388.00
2022-11-05T03:14:04.636Z,2398.00
2022-11-05T03:14:37.133Z,2397.00
2022-11-05T03:15:09.620Z,2396.00
2022-11-05T03:15:42.121Z,2395.00
2022-11-05T03:16:14.602Z,2399.00
2022-11-05T03:16:47.180Z,2401.00
2022-11-05T03:17:17.117Z,2402.00
2022-11-05T03:17:49.624Z,2400.00
2022-11-05T03:18:22.113Z,2389.00
2022-11-05T03:18:54.607Z,2380.00
2022-11-05T03:19:27.097Z,2374.00
2022-11-05T03:19:59.596Z,2369.00
2022-11-05T03:20:32.086Z,2367.00
2022-11-05T03:21:04.596Z,2365.00
2022-11-05T03:21:37.105Z,2369.00
2022-11-05T03:22:09.601Z,2370.00
2022-11-05T03:22:42.131Z,2374.00
2022-11-05T03:23:14.625Z,2379.00
2022-11-05T03:23:47.115Z,2383.00
2022-11-05T03:24:19.613Z,2387.00
2022-11-05T03:24:52.103Z,2389.00
2022-11-05T03:25:24.597Z,2394.00
2022-11-05T03:25:57.095Z,2403.00
2022-11-05T03:26:29.583Z,2408.00
2022-11-05T03:27:02.104Z,2411.00
2022-11-05T03:27:34.602Z,2417.00
2022-11-05T03:28:07.095Z,2424.00
2022-11-05T03:28:39.592Z,2434.00
2022-11-05T03:29:12.083Z,2450.00
2022-11-05T03:29:44.577Z,2461.00
2022-11-05T03:30:17.068Z,2467.00
2022-11-05T03:30:49.565Z,2458.00
2022-11-05T03:31:22.052Z,2457.00
2022-11-05T03:31:54.542Z,2452.00
2022-11-05T03:32:27.101Z,2442.00
2022-11-05T03:32:57.049Z,2439.00
2022-11-05T03:33:29.544Z,2437.00
2022-11-05T03:34:02.033Z,2436.00
2022-11-05T03:34:34.520Z,2434.00
2022-11-05T03:35:07.022Z,2431.00
2022-11-05T03:35:39.508Z,2429.00
2022-11-05T03:36:12.001Z,2430.00
2022-11-05T03:36:44.487Z,2432.00
2022-11-05T03:37:16.995Z,2437.00
2022-11-05T03:37:49.489Z,2439.00
2022-11-05T03:38:21.981Z,2442.00
2022-11-05T03:38:54.479Z,2440.00
2022-11-05T03:39:26.967Z,2442.00
2022-11-05T03:39:59.478Z,2443.00
2022-11-05T03:40:31.988Z,2445.00
2022-11-05T03:41:04.485Z,2449.00
2022-11-05T03:41:36.979Z,2450.00
2022-11-05T03:42:09.466Z,2447.00
2022-11-05T03:42:41.958Z,2447.00
2022-11-05T03:43:14.759Z,2447.00
2022-11-05T03:43:44.786Z,2449.00
2022-11-05T03:44:17.274Z,2450.00
2022-11-05T03:44:49.769Z,2448.00
2022-11-05T03:45:22.288Z,2448.00
2022-11-05T03:45:54.781Z,2451.00
2022-11-05T03:46:27.268Z,2453.00
2022-11-05T03:46:59.763Z,2457.00
2022-11-05T03:47:32.250Z,2457.00
2022-11-05T03:48:04.742Z,2460.00
2022-11-05T03:48:37.304Z,2460.00
2022-11-05T03:49:07.297Z,2458.00
2022-11-05T03:49:39.780Z,2459.00
2022-11-05T03:50:12.296Z,2456.00
2022-11-05T03:50:44.811Z,2456.00
2022-11-05T03:51:17.330Z,2457.00
2022-11-05T03:51:49.822Z,2459.00
2022-11-05T03:52:22.313Z,2461.00
2022-11-05T03:52:54.807Z,2463.00
2022-11-05T03:53:27.296Z,2465.00
2022-11-05T03:53:59.783Z,2464.00
2022-11-05T03:54:32.275Z,2465.00
2022-11-05T03:55:04.764Z,2463.00
2022-11-05T03:55:37.259Z,2465.00
2022-11-05T03:56:09.776Z,2463.00
2022-11-05T03:56:42.271Z,2462.00
2022-11-05T03:57:14.758Z,2464.00
2022-11-05T03:57:47.597Z,2461.00
2022-11-05T03:58:17.547Z,2459.00
2022-11-05T03:58:53.372Z,2454.00
2022-11-05T03:59:22.392Z,2450.00
2022-11-05T03:59:54.879Z,2445.00
2022-11-05T04:00:27.373Z,2444.00
2022-11-05T04:00:59.872Z,2443.00
2022-11-05T04:01:32.568Z,2441.00
2022-11-05T04:02:02.822Z,2443.00
2022-11-05T04:02:33.091Z,2450.00
2022-11-05T04:03:03.282Z,2457.00
2022-11-05T04:03:33.246Z,2464.00
2022-11-05T04:04:05.736Z,2470.00
2022-11-05T04:04:38.226Z,2475.00
2022-11-05T04:05:10.718Z,2476.00
2022-11-05T04:05:43.214Z,2473.00
2022-11-05T04:06:15.719Z,2476.00
2022-11-05T04:06:48.232Z,2480.00
2022-11-05T04:07:20.720Z,2481.00
2022-11-05T04:07:53.216Z,2483.00
2022-11-05T04:08:25.718Z,2488.00
2022-11-05T04:08:58.202Z,2493.00
2022-11-05T04:09:30.690Z,2497.00
2022-11-05T04:10:03.179Z,2499.00
2022-11-05T04:10:35.668Z,2502.00
2022-11-05T04:11:08.175Z,2513.00
2022-11-05T04:11:40.657Z,2518.00
2022-11-05T04:12:13.202Z,2517.00
2022-11-05T04:12:45.689Z,2523.00
2022-11-05T04:13:18.191Z,2527.00
2022-11-05T04:13:50.678Z,2529.00
2022-11-05T04:14:23.174Z,2536.00
2022-11-05T04:14:55.663Z,2539.00
2022-11-05T04:15:28.166Z,2539.00
2022-11-05T04:16:00.658Z,2539.00
2022-11-05T04:16:33.147Z,2543.00
2022-11-05T04:17:05.635Z,2550.00
2022-11-05T04:17:38.148Z,2550.00
2022-11-05T04:18:10.628Z,2557.00
2022-11-05T04:18:43.123Z,2573.00
2022-11-05T04:19:15.615Z,2585.00
2022-11-05T04:19:48.109Z,2592.00
2022-11-05T04:20:20.602Z,2604.00
2022-11-05T04:20:53.094Z,2613.00
2022-11-05T04:21:25.582Z,2619.00
2022-11-05T04:21:58.074Z,2601.00
2022-11-05T04:22:30.570Z,2590.00
2022-11-05T04:23:03.080Z,2581.00
2022-11-05T04:23:35.572Z,2581.00
2022-11-05T04:24:08.064Z,2584.00
2022-11-05T04:24:40.552Z,2589.00
2022-11-05T04:25:13.043Z,2593.00
2022-11-05T04:25:45.546Z,2595.00
2022-11-05T04:26:18.040Z,2595.00
2022-11-05T04:26:50.519Z,2595.00
2022-11-05T04:27:23.010Z,2598.00
2022-11-05T04:27:55.537Z,2603.00
2022-11-05T04:28:28.035Z,2606.00
2022-11-05T04:29:06.717Z,2607.00
2022-11-05T04:29:32.883Z,2608.00
2022-11-05T04:30:05.372Z,2611.00
2022-11-05T04:30:37.860Z,2621.00
2022-11-05T04:31:10.360Z,2623.00
2022-11-05T04:31:42.853Z,2623.00
2022-11-05T04:32:15.338Z,2626.00
2022-11-05T04:32:47.828Z,2627.00
2022-11-05T04:33:20.339Z,2628.00
2022-11-05T04:33:52.841Z,2629.00
2022-11-05T04:34:25.329Z,2631.00
2022-11-05T04:34:57.841Z,2637.00
2022-11-05T04:35:30.334Z,2638.00
2022-11-05T04:36:02.823Z,2638.00
2022-11-05T04:36:35.312Z,2638.00
2022-11-05T04:37:07.804Z,2635.00
2022-11-05T04:37:40.299Z,2634.00
2022-11-05T04:38:12.791Z,2639.00
2022-11-05T04:38:45.278Z,2640.00
2022-11-05T04:39:17.775Z,2642.00
2022-11-05T04:39:50.264Z,2641.00
2022-11-05T04:40:22.779Z,2640.00
2022-11-05T04:40:55.270Z,2641.00
2022-11-05T04:41:27.762Z,2641.00
2022-11-05T04:42:00.250Z,2640.00
2022-11-05T04:42:32.740Z,2632.00
2022-11-05T04:43:08.217Z,2625.00
2022-11-05T04:43:37.606Z,2620.00
2022-11-05T04:44:10.092Z,2607.00
2022-11-05T04:44:42.584Z,2601.00
2022-11-05T04:45:15.094Z,2595.00
2022-11-05T04:45:47.610Z,2583.00
2022-11-05T04:46:20.099Z,2580.00
2022-11-05T04:46:52.596Z,2583.00
2022-11-05T04:47:25.089Z,2589.00
2022-11-05T04:47:57.600Z,2599.00
2022-11-05T04:48:30.092Z,2605.00
2022-11-05T04:49:02.577Z,2619.00
2022-11-05T04:49:35.068Z,2634.00
2022-11-05T04:50:07.561Z,2647.00
2022-11-05T04:50:40.061Z,2655.00
2022-11-05T04:51:12.556Z,2659.00
2022-11-05T04:51:45.043Z,2671.00
2022-11-05T04:52:17.534Z,2677.00
2022-11-05T04:52:50.039Z,2692.00
2022-11-05T04:53:22.542Z,2733.00
2022-11-05T04:53:55.035Z,2742.00
2022-11-05T04:54:27.547Z,2748.00
2022-11-05T04:55:00.035Z,2754.00
2022-11-05T04:55:32.542Z,2744.00
2022-11-05T04:56:05.030Z,2722.00
2022-11-05T04:56:37.522Z,2668.00
2022-11-05T04:57:10.010Z,2651.00
2022-11-05T04:57:42.500Z,2648.00
2022-11-05T04:58:14.985Z,2647.00
2022-11-05T04:58:47.482Z,2645.00
2022-11-05T04:59:19.986Z,2647.00
2022-11-05T04:59:52.475Z,2648.00
2022-11-05T05:00:24.981Z,2650.00
2022-11-05T05:00:57.573Z,2648.00
2022-11-05T05:01:27.704Z,2648.00
2022-11-05T05:01:57.878Z,2681.00
2022-11-05T05:02:27.892Z,2724.00
2022-11-05T05:03:00.384Z,2730.00
2022-11-05T05:03:32.873Z,2726.00
2022-11-05T05:04:05.364Z,2724.00
2022-11-05T05:04:37.860Z,2713.00
2022-11-05T05:05:10.350Z,2640.00
2022-11-05T05:05:42.849Z,1201.00
2022-11-05T05:06:15.343Z,924.00
2022-11-05T05:06:47.828Z,819.00
2022-11-05T05:07:20.324Z,849.00
2022-11-05T05:07:52.810Z,921.00
2022-11-05T05:08:25.300Z,1506.00
2022-11-05T05:08:57.792Z,2113.00
2022-11-05T05:09:30.288Z,2192.00
2022-11-05T05:10:02.809Z,2215.00
2022-11-05T05:10:35.295Z,2224.00
2022-11-05T05:11:07.818Z,2255.00
2022-11-05T05:11:40.322Z,2272.00
2022-11-05T05:12:12.814Z,2273.00
2022-11-05T05:12:45.305Z,2280.00
2022-11-05T05:13:17.798Z,2287.00
2022-11-05T05:13:50.293Z,2288.00
2022-11-05T05:14:22.784Z,2298.00
2022-11-05T05:14:55.287Z,2305.00
2022-11-05T05:15:27.801Z,2315.00
2022-11-05T05:16:00.288Z,2318.00
2022-11-05T05:16:32.785Z,2315.00
2022-11-05T05:17:05.274Z,2322.00
2022-11-05T05:17:37.776Z,2323.00
2022-11-05T05:18:10.283Z,2328.00
2022-11-05T05:18:46.279Z,2327.00
2022-11-05T05:19:13.995Z,2320.00
2022-11-05T05:19:46.487Z,2311.00
2022-11-05T05:20:18.977Z,2309.00
2022-11-05T05:20:51.487Z,2305.00
2022-11-05T05:21:23.974Z,2303.00
2022-11-05T05:21:56.465Z,2302.00
2022-11-05T05:22:28.955Z,2308.00
2022-11-05T05:23:01.558Z,2311.00
2022-11-05T05:23:31.547Z,2310.00
2022-11-05T05:24:04.037Z,2300.00
2022-11-05T05:24:36.528Z,2287.00
2022-11-05T05:25:09.020Z,2270.00
2022-11-05T05:25:41.534Z,2263.00
2022-11-05T05:26:14.100Z,2261.00
2022-11-05T05:26:46.620Z,2269.00
2022-11-05T05:27:19.110Z,2273.00
2022-11-05T05:27:51.603Z,2266.00
2022-11-05T05:28:24.097Z,2263.00
2022-11-05T05:28:56.590Z,2261.00
2022-11-05T05:29:29.089Z,2252.00
2022-11-05T05:30:01.572Z,2248.00
2022-11-05T05:30:34.070Z,2253.00
2022-11-05T05:31:06.574Z,2258.00
2022-11-05T05:31:39.065Z,2268.00
2022-11-05T05:32:11.570Z,2276.00
2022-11-05T05:32:44.064Z,2285.00
2022-11-05T05:33:16.559Z,2290.00
2022-11-05T05:33:49.047Z,2285.00
2022-11-05T05:34:21.535Z,2278.00
2022-11-05T05:34:54.026Z,2273.00
2022-11-05T05:35:26.527Z,2273.00
2022-11-05T05:35:59.053Z,2278.00
2022-11-05T05:36:31.549Z,2279.00
2022-11-05T05:37:04.049Z,2279.00
2022-11-05T05:37:36.535Z,2284.00
2022-11-05T05:38:09.025Z,2287.00
2022-11-05T05:38:41.504Z,2303.00
2022-11-05T05:39:13.994Z,2320.00
2022-11-05T05:39:46.485Z,2331.00
2022-11-05T05:40:18.976Z,2335.00
2022-11-05T05:40:51.465Z,2346.00
2022-11-05T05:41:23.979Z,2356.00
2022-11-05T05:41:56.470Z,2361.00
2022-11-05T05:42:28.968Z,2369.00
2022-11-05T05:43:01.475Z,2373.00
2022-11-05T05:43:33.960Z,2379.00
2022-11-05T05:44:06.455Z,2387.00
2022-11-05T05:44:38.945Z,2395.00
2022-11-05T05:45:11.435Z,2399.00
2022-11-05T05:45:43.919Z,2399.00
2022-11-05T05:46:16.418Z,2396.00
2022-11-05T05:46:48.928Z,1782.00
2022-11-05T05:47:21.418Z,1383.00
2022-11-05T05:47:53.905Z,1459.00
2022-11-05T05:48:26.397Z,1159.00
2022-11-05T05:48:58.888Z,1071.00
2022-11-05T05:49:31.399Z,1425.00
2022-11-05T05:50:03.897Z,1051.00
2022-11-05T05:50:36.388Z,1161.00
2022-11-05T05:51:08.879Z,1175.00
2022-11-05T05:51:41.370Z,1059.00
2022-11-05T05:52:13.856Z,1011.00
2022-11-05T05:52:46.366Z,1158.00
2022-11-05T05:53:18.857Z,1341.00
2022-11-05T05:53:51.343Z,1113.00
2022-11-05T05:54:29.149Z,1127.00
2022-11-05T05:54:56.214Z,1112.00
2022-11-05T05:55:28.706Z,1734.00
2022-11-05T05:56:01.211Z,1820.00
2022-11-05T05:56:33.697Z,1807.00
2022-11-05T05:57:06.214Z,1685.00
2022-11-05T05:57:38.704Z,1682.00
2022-11-05T05:58:11.196Z,950.00
2022-11-05T05:58:43.677Z,745.00
2022-11-05T05:59:16.159Z,613.00
2022-11-05T05:59:48.661Z,591.00
2022-11-05T06:00:21.149Z,591.00
2022-11-05T06:00:53.657Z,605.00
2022-11-05T06:01:26.173Z,604.00
2022-11-05T06:01:58.775Z,541.00
2022-11-05T06:02:29.046Z,532.00
2022-11-05T06:02:59.101Z,508.00
2022-11-05T06:03:29.067Z,486.00
2022-11-05T06:04:01.551Z,478.00
2022-11-05T06:04:34.032Z,473.00
2022-11-05T06:05:06.517Z,475.00
2022-11-05T06:05:39.007Z,474.00
2022-11-05T06:06:11.513Z,474.00
2022-11-05T06:06:44.009Z,475.00
2022-11-05T06:07:16.489Z,471.00
2022-11-05T06:07:48.977Z,470.00
2022-11-05T06:08:21.456Z,469.00
2022-11-05T06:08:53.940Z,467.00
2022-11-05T06:09:26.427Z,464.00
2022-11-05T06:09:58.908Z,462.00
2022-11-05T06:10:31.425Z,463.00
2022-11-05T06:11:03.991Z,462.00
2022-11-05T06:11:34.026Z,461.00
2022-11-05T06:12:06.508Z,462.00
2022-11-05T06:12:38.999Z,460.00
2022-11-05T06:13:11.885Z,460.00
2022-11-05T06:13:42.055Z,461.00
2022-11-05T06:14:14.532Z,467.00
2022-11-05T06:14:47.015Z,478.00
2022-11-05T06:15:19.498Z,486.00
2022-11-05T06:17:11.542Z,471.00
2022-11-05T06:17:44.021Z,486.00
2022-11-05T06:18:16.522Z,488.00
2022-11-05T06:18:49.005Z,491.00
2022-11-05T06:19:21.500Z,494.00
2022-11-05T06:19:53.984Z,493.00
2022-11-05T06:20:26.485Z,494.00
2022-11-05T06:20:58.967Z,496.00
2022-11-05T06:21:31.511Z,498.00
2022-11-05T06:22:04.008Z,502.00
2022-11-05T06:22:36.492Z,502.00
2022-11-05T06:23:09.349Z,502.00
2022-11-05T06:23:39.493Z,503.00
2022-11-05T06:24:11.974Z,504.00
2022-11-05T06:24:44.461Z,505.00
2022-11-05T06:25:16.948Z,506.00
2022-11-05T06:25:49.449Z,511.00
2022-11-05T06:27:00.878Z,568.00
2022-11-05T06:27:33.362Z,576.00
2022-11-05T06:28:05.859Z,568.00
2022-11-05T06:28:38.342Z,559.00
2022-11-05T06:29:10.858Z,554.00
2022-11-05T06:29:43.340Z,549.00
2022-11-05T06:30:15.826Z,547.00
2022-11-05T06:30:48.309Z,544.00
2022-11-05T06:31:20.812Z,542.00
2022-11-05T06:31:53.308Z,540.00
2022-11-05T06:32:25.791Z,538.00
2022-11-05T06:32:58.278Z,538.00
2022-11-05T06:33:30.775Z,539.00
2022-11-05T06:34:03.289Z,540.00